Terminal Aerodrome Forecast
Issued by NWS

Home | Current Version | Previous Version | Graphics & Text | Print | Product List | Glossary Off
Versions: 1 2 3 4 5 6 7 8 9 10 11 12 13 14 15 16 17 18 19 20 21 22 23 24 25 26 27 28 29 30 31 32

279
FTUS43 KGRB 241132
TAFRHI
TAF
KRHI 241132Z 2412/2512 00000KT P6SM SCT008 BKN120
      TEMPO 2412/2414 BKN008
     FM241800 24003KT P6SM SCT015 BKN050
     FM250200 21003KT P6SM BKN015
     FM250800 VRB02KT 5SM BR BKN008=

USA.gov is the U.S. government's official web portal to all federal, state and local government web resources and services.